createdAt,value
2019-02-18T00:01:31.503Z,97890.28
2019-02-18T00:04:01.123Z,97891.33
2019-02-18T00:06:34.005Z,97891.33
2019-02-18T00:09:04.945Z,97888.95
2019-02-18T00:11:35.253Z,97894.95
2019-02-18T00:14:04.834Z,97894.95
2019-02-18T00:16:34.488Z,97890.20
2019-02-18T00:19:04.523Z,97893.39
2019-02-18T00:21:34.423Z,97894.20
2019-02-18T00:24:05.983Z,97894.20
2019-02-18T00:26:35.740Z,97890.54
2019-02-18T00:29:07.793Z,97892.77
2019-02-18T00:31:37.554Z,97892.77
2019-02-18T00:34:07.352Z,97895.59
2019-02-18T00:36:37.467Z,97888.91
2019-02-18T00:39:07.212Z,97893.06
2019-02-18T00:41:37.125Z,97893.06
2019-02-18T00:44:07.438Z,97890.25
2019-02-18T00:46:37.159Z,97891.39
2019-02-18T00:49:06.932Z,97891.39
2019-02-18T00:51:40.044Z,97890.63
2019-02-18T00:54:09.770Z,97884.92
2019-02-18T00:56:39.456Z,97888.69
2019-02-18T00:59:09.150Z,97888.69
2019-02-18T01:01:38.802Z,97887.16
2019-02-18T01:04:08.915Z,97887.16
2019-02-18T01:06:38.577Z,97886.11
2019-02-18T01:09:08.896Z,97885.83
2019-02-18T01:11:38.804Z,97885.83
2019-02-18T01:14:08.617Z,97879.78
2019-02-18T01:16:38.499Z,97882.25
2019-02-18T01:19:08.261Z,97881.87
2019-02-18T01:21:37.859Z,97884.73
2019-02-18T01:24:07.613Z,97888.73
2019-02-18T01:26:40.225Z,97888.73
2019-02-18T01:29:11.321Z,97882.48
2019-02-18T01:31:44.196Z,97885.16
2019-02-18T01:34:13.918Z,97880.55
2019-02-18T01:36:44.126Z,97887.73
2019-02-18T01:39:14.065Z,97880.88
2019-02-18T01:41:43.932Z,97877.07
2019-02-18T01:44:13.891Z,97883.29
2019-02-18T01:46:44.028Z,97873.02
2019-02-18T01:49:14.325Z,97872.45
2019-02-18T01:51:44.064Z,97872.45
2019-02-18T01:54:13.784Z,97868.55
2019-02-18T01:56:43.610Z,97868.36
2019-02-18T01:59:13.376Z,97868.36
2019-02-18T02:01:44.698Z,97868.68
2019-02-18T02:04:14.377Z,97864.17
2019-02-18T02:06:45.800Z,97855.52
2019-02-18T02:09:16.601Z,97853.70
2019-02-18T02:11:46.351Z,97853.70
2019-02-18T02:14:15.979Z,97849.72
2019-02-18T02:16:45.645Z,97852.52
2019-02-18T02:19:15.415Z,97852.52
2019-02-18T02:21:45.083Z,97855.46
2019-02-18T02:24:15.146Z,97854.41
2019-02-18T02:26:46.137Z,97850.52
2019-02-18T02:29:16.150Z,97845.09
2019-02-18T02:31:46.055Z,97845.09
2019-02-18T02:34:16.254Z,97841.39
2019-02-18T02:36:46.094Z,97841.39
2019-02-18T02:39:15.856Z,97846.81
2019-02-18T02:41:45.599Z,97840.06
2019-02-18T02:44:15.153Z,97846.71
2019-02-18T02:46:45.595Z,97843.38
2019-02-18T02:49:15.364Z,97843.38
2019-02-18T02:51:44.945Z,97836.06
2019-02-18T02:54:14.960Z,97834.44
2019-02-18T02:56:44.628Z,97832.86
2019-02-18T02:59:15.072Z,97831.44
2019-02-18T03:01:44.965Z,97831.44
2019-02-18T03:04:14.643Z,97828.59
2019-02-18T03:06:44.311Z,97830.87
2019-02-18T03:09:14.267Z,97829.54
2019-02-18T03:11:44.176Z,97833.06
2019-02-18T03:14:13.976Z,97829.29
2019-02-18T03:16:43.664Z,97829.86
2019-02-18T03:19:13.301Z,97833.41
2019-02-18T03:21:43.058Z,97835.44
2019-02-18T03:24:16.621Z,97835.44
2019-02-18T03:26:46.312Z,97826.05
2019-02-18T03:30:13.386Z,97826.05
2019-02-18T03:32:48.793Z,97829.47
2019-02-18T03:35:18.375Z,97818.69
2019-02-18T03:37:48.567Z,97818.69
2019-02-18T03:40:18.344Z,97824.39
2019-02-18T03:42:48.247Z,97822.30
2019-02-18T03:45:18.482Z,97826.45
2019-02-18T03:47:48.361Z,97820.66
2019-02-18T03:50:18.084Z,97820.66
2019-02-18T03:52:47.938Z,97824.08
2019-02-18T03:55:19.092Z,97822.80
2019-02-18T03:57:48.842Z,97830.90
2019-02-18T04:00:19.531Z,97830.90
2019-02-18T04:02:49.416Z,97830.90
2019-02-18T04:05:23.097Z,97820.25
2019-02-18T04:07:52.751Z,97820.35
2019-02-18T04:10:22.343Z,97823.87
2019-02-18T04:12:52.156Z,97819.94
2019-02-18T04:15:21.900Z,97819.59
2019-02-18T04:17:51.560Z,97819.59
2019-02-18T04:20:21.262Z,97821.68
2019-02-18T04:22:51.334Z,97815.59
2019-02-18T04:25:23.080Z,97816.16
2019-02-18T04:27:53.028Z,97816.16
2019-02-18T04:30:22.589Z,97820.16
2019-02-18T04:32:52.252Z,97818.73
2019-02-18T04:35:21.997Z,97818.73
2019-02-18T04:37:51.763Z,97822.34
2019-02-18T04:40:21.368Z,97822.34
2019-02-18T04:42:51.145Z,97816.83
2019-02-18T04:45:21.139Z,97816.83
2019-02-18T04:47:51.041Z,97816.64
2019-02-18T04:50:21.065Z,97816.08
2019-02-18T04:52:51.147Z,97816.08
2019-02-18T04:55:21.757Z,97809.70
2019-02-18T04:57:51.474Z,97814.08
2019-02-18T05:00:24.327Z,97814.08
2019-02-18T05:02:54.279Z,97811.00
2019-02-18T05:05:25.305Z,97810.16
2019-02-18T05:07:55.717Z,97812.59
2019-02-18T05:10:25.391Z,97807.84
2019-02-18T05:12:55.283Z,97805.46
2019-02-18T05:15:25.049Z,97804.42
2019-02-18T05:17:54.749Z,97804.42
2019-02-18T05:20:24.430Z,97810.59
2019-02-18T05:22:54.520Z,97809.84
2019-02-18T05:25:26.574Z,97805.84
2019-02-18T05:27:56.822Z,97805.17
2019-02-18T05:30:34.155Z,97805.17
2019-02-18T05:33:03.800Z,97802.70
2019-02-18T05:35:33.635Z,97803.28
2019-02-18T05:38:03.186Z,97804.13
2019-02-18T05:40:32.935Z,97804.13
2019-02-18T05:43:02.641Z,97800.45
2019-02-18T05:45:32.888Z,97800.45
2019-02-18T05:48:02.642Z,97794.53
2019-02-18T05:50:32.514Z,97798.52
2019-02-18T05:53:02.165Z,97795.42
2019-02-18T05:55:32.835Z,97795.27
2019-02-18T05:58:02.618Z,97799.03
2019-02-18T06:00:34.837Z,97797.26
2019-02-18T06:03:04.937Z,97797.26
2019-02-18T06:05:34.659Z,97798.52
2019-02-18T06:08:04.461Z,97798.52
2019-02-18T06:10:34.153Z,97790.16
2019-02-18T06:13:03.830Z,97790.16
2019-02-18T06:15:41.407Z,97790.89
2019-02-18T06:18:18.822Z,97784.75
2019-02-18T06:20:48.610Z,97791.14
2019-02-18T06:23:18.086Z,97788.58
2019-02-18T06:25:47.987Z,97791.02
2019-02-18T06:28:17.521Z,97791.02
2019-02-18T06:30:46.974Z,97794.53
2019-02-18T06:33:16.867Z,97788.07
2019-02-18T06:35:46.581Z,97788.07
2019-02-18T06:38:17.941Z,97787.66
2019-02-18T06:40:47.689Z,97787.22
2019-02-18T06:43:17.252Z,97788.07
2019-02-18T06:46:02.504Z,97782.44
2019-02-18T06:48:34.123Z,97782.44
2019-02-18T06:51:03.902Z,97782.27
2019-02-18T06:53:35.778Z,97781.58
2019-02-18T06:56:06.192Z,97786.52
2019-02-18T06:59:03.846Z,97786.52
2019-02-18T07:01:42.142Z,97786.80
2019-02-18T07:04:33.398Z,97784.78
2019-02-18T07:07:11.530Z,97784.78
2019-02-18T07:09:51.681Z,97786.11
2019-02-18T07:12:27.816Z,97782.87
2019-02-18T07:14:59.042Z,97790.29
2019-02-18T07:17:28.612Z,97790.29
2019-02-18T07:19:58.378Z,97794.85
2019-02-18T07:22:28.690Z,97794.25
2019-02-18T07:24:59.629Z,97794.25
2019-02-18T07:27:29.397Z,97798.11
2019-02-18T07:29:59.608Z,97788.13
2019-02-18T07:32:29.245Z,97788.13
2019-02-18T07:35:00.708Z,97791.89
2019-02-18T07:37:30.568Z,97783.52
2019-02-18T07:40:02.484Z,97790.89
2019-02-18T07:42:32.014Z,97784.61
2019-02-18T07:45:02.747Z,97784.00
2019-02-18T07:47:32.425Z,97784.00
2019-02-18T07:50:02.261Z,97786.50
2019-02-18T07:52:31.983Z,97786.50
2019-02-18T07:55:01.852Z,97781.55
2019-02-18T07:57:31.287Z,97782.67
2019-02-18T08:00:01.277Z,97778.34
2019-02-18T08:02:31.140Z,97779.31
2019-02-18T08:05:02.246Z,97779.31
2019-02-18T08:07:32.400Z,97780.31
2019-02-18T08:10:11.532Z,97784.48
2019-02-18T08:12:33.145Z,97789.38
2019-02-18T08:15:02.742Z,97789.38
2019-02-18T08:17:33.748Z,97777.76
2019-02-18T08:20:04.141Z,97770.34
2019-02-18T08:22:34.422Z,97771.52
2019-02-18T08:25:04.098Z,97761.02
2019-02-18T08:27:34.445Z,97761.02
2019-02-18T08:30:04.300Z,97768.70
2019-02-18T08:32:34.665Z,97761.58
2019-02-18T08:35:04.339Z,97755.44
2019-02-18T08:37:34.152Z,97755.13
2019-02-18T08:40:04.134Z,97755.13
2019-02-18T08:42:34.280Z,97755.19
2019-02-18T08:45:04.066Z,97768.19
2019-02-18T08:47:33.648Z,97759.54
2019-02-18T08:50:03.766Z,97759.54
2019-02-18T08:52:33.435Z,97755.92
2019-02-18T08:55:03.491Z,97755.92
2019-02-18T08:57:34.068Z,97754.41
2019-02-18T09:00:03.593Z,97752.25
2019-02-18T09:02:33.371Z,97749.95
2019-02-18T09:05:03.212Z,97752.76
2019-02-18T09:07:32.839Z,97757.53
2019-02-18T09:10:02.401Z,97745.48
2019-02-18T09:12:34.314Z,97744.55
2019-02-18T09:15:04.035Z,97737.23
2019-02-18T09:17:33.598Z,97737.23
2019-02-18T09:20:06.252Z,97731.89
2019-02-18T09:22:51.562Z,97734.56
2019-02-18T09:25:28.481Z,97729.34
2019-02-18T09:27:58.349Z,97727.73
2019-02-18T09:30:30.777Z,97732.55
2019-02-18T09:33:03.304Z,97732.55
2019-02-18T09:35:34.099Z,97723.28
2019-02-18T09:38:04.489Z,97723.28
2019-02-18T09:40:44.185Z,97730.08
2019-02-18T09:43:05.388Z,97725.57
2019-02-18T09:45:35.088Z,97724.56
2019-02-18T09:48:05.260Z,97724.56
2019-02-18T09:50:37.281Z,97721.97
2019-02-18T09:53:06.693Z,97726.63
2019-02-18T09:55:37.973Z,97723.38
2019-02-18T09:58:08.143Z,97718.62
2019-02-18T10:00:38.865Z,97720.39
2019-02-18T10:03:08.455Z,97722.03
2019-02-18T10:05:40.570Z,97722.03
2019-02-18T10:08:10.349Z,97720.20
2019-02-18T10:10:39.945Z,97720.20
2019-02-18T10:13:09.930Z,97724.13
2019-02-18T10:15:41.000Z,97713.64
2019-02-18T10:18:11.011Z,97713.64
2019-02-18T10:20:41.289Z,97717.56
2019-02-18T10:23:12.166Z,97706.98
2019-02-18T10:25:41.992Z,97706.84
2019-02-18T10:28:12.141Z,97706.84
2019-02-18T10:30:41.996Z,97703.65
2019-02-18T10:33:12.095Z,97711.11
2019-02-18T10:35:41.684Z,97706.00
2019-02-18T10:38:11.256Z,97700.20
2019-02-18T10:40:42.279Z,97695.19
2019-02-18T10:43:11.836Z,97700.98
2019-02-18T10:45:41.338Z,97700.98
2019-02-18T10:48:10.897Z,97695.19
2019-02-18T10:50:42.724Z,97691.11
2019-02-18T10:53:12.110Z,97691.11
2019-02-18T10:55:41.659Z,97685.67
2019-02-18T10:58:11.222Z,97678.58
2019-02-18T11:00:40.802Z,97678.58
2019-02-18T11:03:10.473Z,97671.88
2019-02-18T11:05:40.759Z,97671.88
2019-02-18T11:08:10.792Z,97666.15
2019-02-18T11:10:40.355Z,97666.15
2019-02-18T11:13:11.092Z,97663.23
2019-02-18T11:15:41.036Z,97663.23
2019-02-18T11:18:13.096Z,97664.94
2019-02-18T11:20:42.770Z,97662.63
2019-02-18T11:23:12.468Z,97651.14
2019-02-18T11:25:42.325Z,97651.50
2019-02-18T11:28:13.083Z,97647.80
2019-02-18T11:30:42.668Z,97645.41
2019-02-18T11:33:15.368Z,97646.69
2019-02-18T11:35:45.265Z,97646.69
2019-02-18T11:38:15.112Z,97640.04
2019-02-18T11:40:45.226Z,97636.11
2019-02-18T11:43:14.977Z,97630.27
2019-02-18T11:45:44.558Z,97630.27
2019-02-18T11:48:16.906Z,97620.45
2019-02-18T11:50:46.482Z,97620.45
2019-02-18T11:53:19.250Z,97620.77
2019-02-18T11:55:49.137Z,97618.48
2019-02-18T11:58:19.355Z,97618.48
2019-02-18T12:00:49.195Z,97619.18
2019-02-18T12:03:18.910Z,97614.05
2019-02-18T12:05:48.788Z,97614.05
2019-02-18T12:08:18.395Z,97604.20
2019-02-18T12:10:48.528Z,97604.20
2019-02-18T12:13:18.797Z,97600.90
2019-02-18T12:15:55.167Z,97602.67
2019-02-18T12:18:25.216Z,97600.33
2019-02-18T12:20:56.025Z,97600.36
2019-02-18T12:23:25.584Z,97594.56
2019-02-18T12:25:58.154Z,97590.84
2019-02-18T12:28:27.698Z,97586.68
2019-02-18T12:31:00.089Z,97586.68
2019-02-18T12:33:30.092Z,97587.36
2019-02-18T12:36:00.132Z,97581.12
2019-02-18T12:38:29.666Z,97581.12
2019-02-18T12:41:00.603Z,97577.75
2019-02-18T12:43:33.482Z,97561.83
2019-02-18T12:46:03.267Z,97561.83
2019-02-18T12:48:35.214Z,97553.29
2019-02-18T12:51:07.178Z,97553.29
2019-02-18T12:53:36.775Z,97556.71
2019-02-18T12:56:07.237Z,97548.33
2019-02-18T12:58:36.979Z,97541.61
2019-02-18T13:01:06.840Z,97538.67
2019-02-18T13:03:36.497Z,97530.94
2019-02-18T13:06:06.379Z,97530.94
2019-02-18T13:08:35.915Z,97534.49
2019-02-18T13:11:06.383Z,97521.61
2019-02-18T13:13:37.172Z,97521.55
2019-02-18T13:16:06.863Z,97513.11
2019-02-18T13:18:36.656Z,97499.73
2019-02-18T13:21:06.485Z,97499.09
2019-02-18T13:23:36.514Z,97492.29
2019-02-18T13:26:10.503Z,97489.05
2019-02-18T13:28:40.862Z,97484.91
2019-02-18T13:31:10.862Z,97474.57
2019-02-18T13:33:40.648Z,97473.86
2019-02-18T13:36:15.091Z,97464.29
2019-02-18T13:38:44.741Z,97452.74
2019-02-18T13:41:14.313Z,97455.48
2019-02-18T13:43:44.071Z,97451.12
2019-02-18T13:46:13.815Z,97451.12
2019-02-18T13:48:43.443Z,97445.58
2019-02-18T13:51:12.974Z,97445.30
2019-02-18T13:53:43.677Z,97441.69
2019-02-18T13:56:16.036Z,97442.06
2019-02-18T13:58:45.876Z,97433.28
2019-02-18T14:01:16.762Z,97429.61
2019-02-18T14:03:46.338Z,97417.97
2019-02-18T14:06:16.133Z,97417.97
2019-02-18T14:08:45.621Z,97417.00
2019-02-18T14:11:15.496Z,97411.58
2019-02-18T14:13:45.501Z,97411.58
2019-02-18T14:16:18.058Z,97416.30
2019-02-18T14:18:47.581Z,97411.48
2019-02-18T14:21:20.222Z,97411.48
2019-02-18T14:23:52.697Z,97407.55
2019-02-18T14:26:22.585Z,97404.88
2019-02-18T14:28:52.058Z,97393.78
2019-02-18T14:31:22.082Z,97392.91
2019-02-18T14:33:51.933Z,97392.91
2019-02-18T14:36:21.755Z,97395.84
2019-02-18T14:38:51.634Z,97395.25
2019-02-18T14:41:21.831Z,97400.98
2019-02-18T14:43:51.658Z,97406.89
2019-02-18T14:46:24.287Z,97404.64
2019-02-18T14:48:56.425Z,97404.83
2019-02-18T14:51:25.999Z,97400.81
2019-02-18T14:53:55.998Z,97406.09
2019-02-18T14:56:25.780Z,97406.09
2019-02-18T14:58:56.086Z,97406.55
2019-02-18T15:01:25.722Z,97394.77
2019-02-18T15:03:55.295Z,97394.77
2019-02-18T15:06:25.480Z,97392.45
2019-02-18T15:08:55.879Z,97392.45
2019-02-18T15:11:27.793Z,97397.89
2019-02-18T15:14:01.231Z,97397.16
2019-02-18T15:16:31.299Z,97389.84
2019-02-18T15:19:02.276Z,97390.48
2019-02-18T15:21:34.981Z,97400.91
2019-02-18T15:24:05.121Z,97400.91
2019-02-18T15:26:34.596Z,97397.88
2019-02-18T15:29:04.232Z,97385.66
2019-02-18T15:31:33.780Z,97385.31
2019-02-18T15:34:03.796Z,97388.48
2019-02-18T15:36:33.745Z,97388.75
2019-02-18T15:39:03.259Z,97388.75
2019-02-18T15:41:32.816Z,97388.61
2019-02-18T15:44:02.527Z,97391.39
2019-02-18T15:46:32.302Z,97391.39
2019-02-18T15:49:02.224Z,97391.29
2019-02-18T15:51:32.032Z,97391.29
2019-02-18T15:54:04.948Z,97391.59
2019-02-18T15:56:35.141Z,97392.10
2019-02-18T15:59:04.944Z,97392.10
2019-02-18T16:01:34.540Z,97396.67
2019-02-18T16:04:05.174Z,97396.67
2019-02-18T16:06:35.010Z,97401.91
2019-02-18T16:09:08.976Z,97401.91
2019-02-18T16:11:38.910Z,97397.93
2019-02-18T16:14:09.711Z,97396.94
2019-02-18T16:16:41.079Z,97405.44
2019-02-18T16:19:12.897Z,97405.44
2019-02-18T16:21:42.461Z,97398.00
2019-02-18T16:24:19.617Z,97398.00
2019-02-18T16:26:46.183Z,97399.48
2019-02-18T16:29:16.389Z,97396.58
2019-02-18T16:31:48.589Z,97391.38
2019-02-18T16:34:18.305Z,97391.63
2019-02-18T16:36:49.750Z,97391.63
2019-02-18T16:39:19.666Z,97398.86
2019-02-18T16:41:49.208Z,97398.86
2019-02-18T16:44:19.133Z,97397.80
2019-02-18T16:46:50.658Z,97399.48
2019-02-18T16:49:23.665Z,97399.48
2019-02-18T16:51:56.044Z,97408.73
2019-02-18T16:54:26.455Z,97406.24
2019-02-18T16:56:56.738Z,97406.24
2019-02-18T16:59:29.431Z,97423.64
2019-02-18T17:02:00.269Z,97423.64
2019-02-18T17:04:30.538Z,97429.77
2019-02-18T17:07:00.347Z,97423.38
2019-02-18T17:09:33.694Z,97423.38
2019-02-18T17:12:03.239Z,97416.84
2019-02-18T17:14:35.839Z,97412.91
2019-02-18T17:17:07.131Z,97409.73
2019-02-18T17:19:36.940Z,97409.73
2019-02-18T17:22:06.640Z,97412.85
2019-02-18T17:24:40.002Z,97411.48
2019-02-18T17:27:10.605Z,97409.98
2019-02-18T17:29:40.427Z,97409.98
2019-02-18T17:32:10.208Z,97416.64
2019-02-18T17:34:46.429Z,97413.42
2019-02-18T17:37:17.294Z,97416.16
2019-02-18T17:39:53.197Z,97423.97
2019-02-18T17:42:23.007Z,97427.00
2019-02-18T17:44:58.982Z,97433.39
2019-02-18T17:47:33.637Z,97432.87
2019-02-18T17:50:03.344Z,97426.55
2019-02-18T17:52:34.917Z,97426.55
2019-02-18T17:55:05.129Z,97430.19
2019-02-18T17:57:40.136Z,97430.19
2019-02-18T18:00:12.512Z,97427.09
2019-02-18T18:02:42.680Z,97421.39
2019-02-18T18:05:14.531Z,97421.39
2019-02-18T18:07:44.304Z,97419.81
2019-02-18T18:10:14.935Z,97419.81
2019-02-18T18:12:44.778Z,97419.13
2019-02-18T18:15:16.159Z,97419.13
2019-02-18T18:17:46.714Z,97418.05
2019-02-18T18:20:16.356Z,97428.80
2019-02-18T18:22:47.130Z,97428.80
2019-02-18T18:25:17.016Z,97426.76
2019-02-18T18:27:46.696Z,97426.76
2019-02-18T18:30:17.126Z,97419.95
2019-02-18T18:32:46.811Z,97414.86
2019-02-18T18:35:16.687Z,97427.29
2019-02-18T18:37:46.408Z,97430.58
2019-02-18T18:40:19.241Z,97432.67
2019-02-18T18:42:48.944Z,97432.67
2019-02-18T18:45:18.494Z,97429.91
2019-02-18T18:47:48.239Z,97430.40
2019-02-18T18:50:18.667Z,97435.38
2019-02-18T18:52:56.030Z,97435.38
2019-02-18T18:55:32.444Z,97435.14
2019-02-18T18:58:05.401Z,97433.22
2019-02-18T19:00:35.184Z,97433.22
2019-02-18T19:03:09.317Z,97441.64
2019-02-18T19:05:39.466Z,97434.95
2019-02-18T19:08:09.013Z,97432.88
2019-02-18T19:10:40.584Z,97440.69
2019-02-18T19:13:10.928Z,97440.69
2019-02-18T19:15:49.257Z,97444.59
2019-02-18T19:18:12.069Z,97446.75
2019-02-18T19:20:42.080Z,97450.27
2019-02-18T19:23:13.243Z,97454.78
2019-02-18T19:25:42.872Z,97454.78
2019-02-18T19:28:16.217Z,97451.89
2019-02-18T19:30:45.959Z,97453.61
2019-02-18T19:33:15.748Z,97451.91
2019-02-18T19:35:45.992Z,97447.19
2019-02-18T19:38:23.148Z,97448.27
2019-02-18T19:40:53.447Z,97448.27
2019-02-18T19:43:24.018Z,97452.76
2019-02-18T19:46:02.028Z,97451.05
2019-02-18T19:48:35.261Z,97458.47
2019-02-18T19:51:06.146Z,97458.47
2019-02-18T19:53:38.231Z,97459.18
2019-02-18T19:56:09.715Z,97456.41
2019-02-18T19:58:41.963Z,97453.98
2019-02-18T20:01:11.700Z,97459.31
2019-02-18T20:03:46.653Z,97459.31
2019-02-18T20:06:21.852Z,97458.95
2019-02-18T20:08:51.557Z,97458.95
2019-02-18T20:11:24.444Z,97454.81
2019-02-18T20:13:58.888Z,97454.81
2019-02-18T20:16:25.886Z,97451.78
2019-02-18T20:18:55.864Z,97451.78
2019-02-18T20:21:27.409Z,97456.77
2019-02-18T20:23:57.339Z,97456.77
2019-02-18T20:26:27.035Z,97462.09
2019-02-18T20:28:56.913Z,97462.09
2019-02-18T20:31:26.521Z,97462.31
2019-02-18T20:33:59.153Z,97462.31
2019-02-18T20:36:31.646Z,97460.99
2019-02-18T20:39:04.032Z,97459.77
2019-02-18T20:41:39.400Z,97462.92
2019-02-18T20:44:08.984Z,97462.92
2019-02-18T20:46:44.297Z,97465.59
2019-02-18T20:49:16.302Z,97460.08
2019-02-18T20:51:49.414Z,97460.08
2019-02-18T20:54:21.343Z,97457.66
2019-02-18T20:56:57.635Z,97456.08
2019-02-18T20:59:32.505Z,97451.00
2019-02-18T21:02:02.499Z,97459.97
2019-02-18T21:04:33.246Z,97460.93
2019-02-18T21:07:04.423Z,97460.93
2019-02-18T21:09:34.818Z,97462.41
2019-02-18T21:12:04.876Z,97461.30
2019-02-18T21:14:35.152Z,97455.97
2019-02-18T21:17:05.742Z,97455.97
2019-02-18T21:19:36.092Z,97453.07
2019-02-18T21:22:07.746Z,97451.02
2019-02-18T21:24:37.406Z,97452.70
2019-02-18T21:27:09.118Z,97456.22
2019-02-18T21:29:39.393Z,97456.22
2019-02-18T21:32:09.750Z,97456.22
2019-02-18T21:34:39.301Z,97459.00
2019-02-18T21:37:08.968Z,97459.00
2019-02-18T21:39:38.738Z,97457.05
2019-02-18T21:42:08.757Z,97457.05
2019-02-18T21:44:38.799Z,97457.97
2019-02-18T21:47:09.027Z,97460.30
2019-02-18T21:49:39.056Z,97460.30
2019-02-18T21:52:13.742Z,97456.78
2019-02-18T21:54:48.554Z,97456.78
2019-02-18T21:57:19.189Z,97456.89
2019-02-18T21:59:49.358Z,97465.59
2019-02-18T22:02:19.266Z,97459.89
2019-02-18T22:04:49.602Z,97459.89
2019-02-18T22:07:19.661Z,97465.08
2019-02-18T22:09:50.019Z,97465.08
2019-02-18T22:12:20.131Z,97470.30
2019-02-18T22:14:49.819Z,97466.67
2019-02-18T22:17:19.804Z,97459.78
2019-02-18T22:19:51.379Z,97465.70
2019-02-18T22:22:21.495Z,97463.64
2019-02-18T22:24:51.552Z,97463.64
2019-02-18T22:27:21.460Z,97460.01
2019-02-18T22:29:51.244Z,97458.30
2019-02-18T22:32:24.384Z,97463.27
2019-02-18T22:34:54.154Z,97467.04
2019-02-18T22:37:23.804Z,97468.33
2019-02-18T22:39:53.900Z,97468.33
2019-02-18T22:42:23.525Z,97464.33
2019-02-18T22:44:54.766Z,97466.55
2019-02-18T22:47:26.915Z,97466.55
2019-02-18T22:49:57.190Z,97462.63
2019-02-18T22:52:27.067Z,97461.30
2019-02-18T22:54:57.275Z,97452.97
2019-02-18T22:57:27.424Z,97452.97
2019-02-18T22:59:57.670Z,97453.18
2019-02-18T23:02:27.490Z,97455.84
2019-02-18T23:04:57.388Z,97455.85
2019-02-18T23:07:27.113Z,97455.31
2019-02-18T23:09:57.228Z,97455.31
2019-02-18T23:12:30.391Z,97452.28
2019-02-18T23:15:00.639Z,97452.28
2019-02-18T23:17:30.414Z,97455.05
2019-02-18T23:20:00.286Z,97455.05
2019-02-18T23:22:30.372Z,97451.16
2019-02-18T23:25:00.832Z,97454.30
2019-02-18T23:27:31.041Z,97457.23
2019-02-18T23:30:00.943Z,97457.59
2019-02-18T23:32:30.918Z,97457.55
2019-02-18T23:35:00.964Z,97456.11
2019-02-18T23:37:31.371Z,97456.11
2019-02-18T23:40:01.973Z,97457.65
2019-02-18T23:42:31.880Z,97457.65
2019-02-18T23:45:05.170Z,97451.47
2019-02-18T23:47:37.248Z,97451.25
2019-02-18T23:50:06.998Z,97451.25
2019-02-18T23:52:36.675Z,97453.28
2019-02-18T23:55:06.562Z,97453.28
2019-02-18T23:57:36.374Z,97451.73
